Tiempo atmosférico en la estación meteorológica de Gran Canaria Aeropuerto, Las Palmas (24 m.)



Fecha
DESCASC
Temp. máxima en grados centígrados (hora)
DESCASC
Temp. mínima en grados centígrados (hora)
DESCASC
Temp. media en grados centígrados
DESCASC
Racha de viento máxima en m/sg (hora)
DESCASC
Velocidad máxima media en intervalos de 10 minutos(hora)
DESCASC
Precipitaciones diarias en mm
DESCASC
Precipitaciones de 00:00 a 06:00 en mm
DESCASC
Precipitaciones de 06:00 a 12:00 en mm
DESCASC
Precipitaciones de 12:00 a 18:00 en mm
DESCASC
Precipitaciones de 18:00 a 24:00 en mm
DESCASC
18-04-2019 21.7 (11:50) 16.8 (05:00) 19.3 16.39 (12:40) 13.06 (13:10) 0 0 0 0 0
17-04-2019 -- (--) -- (--) -- 9.72 (22:40) 6.11 (22:50) 0 0 0 0 0
16-04-2019 -- (--) -- (--) -- 8.33 (07:00) 6.39 (09:20) 0 0 0 0 0
15-04-2019 -- (--) -- (--) -- 12.78 (12:00) 8.61 (13:40) 0 0 0 0 0
14-04-2019 -- (--) -- (--) -- 12.5 (00:10) 9.72 (17:40) 0 0 0 0 0
13-04-2019 -- (--) -- (--) -- 16.39 (14:20) 12.78 (14:50) 0 0 0 0 0
12-04-2019 -- (--) -- (--) -- 17.5 (15:20) 13.06 (17:10) 0 0 0 0 0
11-04-2019 -- (--) -- (--) -- 15.28 (22:00) 10.28 (12:40) 0 0 0 0 0
10-04-2019 -- (--) -- (--) -- 16.11 (14:00) 11.94 (13:30) 0 0 0 0 0
09-04-2019 -- (--) -- (--) -- 15 (14:30) 11.39 (14:30) 0 0 0 0 0
08-04-2019 -- (--) -- (--) -- 12.5 (16:40) 10.28 (16:40) 0 0 0 0 0
07-04-2019 21.6 (12:20) 13.8 (00:00) 17.7 12.78 (16:20) 10.83 (16:40) 0 0 0 0 0
06-04-2019 21.5 (15:00) 15.3 (00:00) 18.4 13.89 (14:30) 10 (16:00) 0 0 0 0 0
05-04-2019 21.9 (12:20) 14.9 (00:00) 18.4 14.44 (18:00) 8.33 (18:40) 0 0 0 0 0
04-04-2019 22.2 (15:20) 13.7 (00:00) 18 13.33 (12:10) 8.89 (12:10) 0.4 0.2 0 0 0.2
03-04-2019 20 (18:00) 15.9 (00:00) 17.9 8.33 (13:00) 6.11 (15:20) 11.1 0 3.8 7.3 0
02-04-2019 21.5 (16:30) 15.6 (00:00) 18.6 8.89 (09:10) 5 (13:40) 0 0 0 0 0
01-04-2019 20.7 (12:30) 14.9 (00:00) 17.8 7.22 (02:50) 4.72 (03:30) 0 0 0 0 0
31-03-2019 21.2 (14:00) 13.1 (00:00) 17.2 9.72 (13:10) 6.39 (13:30) 0 0 0 0 0
30-03-2019 19.2 (12:00) 13.7 (00:00) 16.5 10.28 (09:10) 6.94 (12:20) 1 0 0 1 0
29-03-2019 20.7 (12:30) 14.1 (00:00) 17.4 9.17 (12:20) 6.11 (14:10) 2.3 0 0 1.9 0.4
28-03-2019 21 (12:10) 14.5 (00:00) 17.8 7.22 (18:00) 4.17 (10:50) 0 0 0 0 0
27-03-2019 21.1 (11:50) 14.2 (00:00) 17.7 10.28 (11:50) 8.33 (12:00) 0.9 0 0 0.9 0
26-03-2019 19.9 (10:40) 13.1 (00:00) 16.5 6.67 (11:00) 4.72 (11:00) 7.5 0 5 2.5 0
25-03-2019 21.3 (13:10) 14.2 (00:00) 17.7 -- (--) -- (--) 4.5 0 0 4.4 0.1
24-03-2019 20.5 (11:50) 15.2 (00:00) 17.8 9.17 (00:30) 6.39 (00:50) 0 0 0 0 0
23-03-2019 21.3 (13:20) 16.4 (00:00) 18.8 16.94 (12:20) 15 (13:40) 0 0 0 0 0
22-03-2019 20.8 (13:00) 16.6 (00:00) 18.7 17.5 (10:20) 13.33 (13:40) 0 0 0 0 0
21-03-2019 21.9 (15:20) 16.7 (00:00) 19.3 15 (15:10) 11.39 (10:20) 0 0 0 0 0

Gráficas

Temp. máximas Temp. mínimas Temp. medias Precipitaciones Rachas de viento máximas Velocidades máximas media en intervalos de 10 minutos

Datos horarios

Fecha y hora oficial Temperatura (ºC) Velocidad del viento (km/h) Dirección del viento Racha (km/h) Dirección de racha Precipitación (mm) Presión (hPa) Tendencia (hPa) Humedad (%)
2019-04-19 23:00:00 17.3 23 Norte 45 Norte 0 1013.5 0.8 62
2019-04-19 22:00:00 17.5 25 Norte 37 Norte 0 1013.3 0.8 62
2019-04-19 21:00:00 17.8 22 Norte 42 Norte 0 1012.9 0.7 62
2019-04-19 20:00:00 18.7 28 Norte 46 Norte 0 1012.7 0.4 57
2019-04-19 19:00:00 19.6 36 Norte 50 Norte 0 1012.5 -0.8 55
2019-04-19 18:00:00 20.6 36 Norte 50 Norte 0 1012.2 -1.6 52
2019-04-19 17:00:00 21.4 39 Norte 54 Norte 0 1012.3 -2 51
2019-04-19 16:00:00 21.9 38 Norte 55 Norte 0 1013.3 -1.2 51
2019-04-19 15:00:00 21.8 37 Norte 55 Norte 0 1013.8 -1 51
2019-04-19 14:00:00 21.5 41 Norte 58 Norte 0 1014.3 -0.1 54
2019-04-19 13:00:00 21.2 32 Norte 55 Norte 0 1014.5 0.1 49
2019-04-19 12:00:00 20.8 31 Norte 50 Norte 0 1014.8 1.3 46
2019-04-19 11:00:00 19.6 26 Norte 46 Norte 0 1014.4 1.1 53
2019-04-19 10:00:00 18.9 32 Norte 54 Norte 0 1014.4 1.2 52
2019-04-19 09:00:00 18.3 33 Norte 52 Norte 0 1013.5 0.7 59
2019-04-19 08:00:00 16.8 23 Norte 42 Norte 0 1013.3 0.6 63
2019-04-19 07:00:00 17.2 29 Norte 52 Norte 0 1013.2 0 65
2019-04-19 06:00:00 16.9 30 Norte 48 Norte 0 1012.8 -1.1 75
2019-04-19 05:00:00 16.9 24 Norte 42 Norte 0 1012.7 -1.8 63
2019-04-19 04:00:00 17.2 31 Norte 54 Norte 0 1013.2 -1.7 63
2019-04-19 03:00:00 17.4 27 Norte 45 Norte 0 1013.9 -1.3 65
2019-04-19 02:00:00 17.5 25 Norte 46 Norte 0 1014.5 -0.7 63
2019-04-19 01:00:00 17.7 23 Norte 39 Norte 0 1014.9 0.2 68
2019-04-19 00:00:00 17.9 24 Norte 37 Norte 0 1015.2 1.2 67
2019-04-18 23:00:00 17.8 22 Norte 41 Norte 0 1015.2 1.7 63
2019-04-18 22:00:00 18 21 Norte 39 Norte 0 1014.7 1.5 66
2019-04-18 21:00:00 18.1 24 Norte 42 Norte 0 1014 0.9 61
2019-04-18 20:00:00 18.9 29 Norte 46 Norte 0 1013.5 0.4 57
2019-04-18 19:00:00 19.8 27 Norte 42 Norte 0 1013.2 -0.4 53
2019-04-18 18:00:00 20.6 28 Norte 46 Norte 0 1013.1 -0.7 51
2019-04-18 17:00:00 20.9 29 Norte 52 Norte 0 1013.1 -1.1 49
2019-04-18 16:00:00 20.7 35 Norte 52 Norte 0 1013.6 -0.6 54
2019-04-18 15:00:00 20.8 42 Norte 54 Norte 0 1013.8 -0.5 54
2019-04-18 14:00:00 20.4 36 Norte 59 Norte 0 1014.2 0.1 56
2019-04-18 13:00:00 21.4 40 Norte 59 Norte 0 1014.2 0.5 53
2019-04-18 12:00:00 20.7 38 Norte 52 Norte 0 1014.3 0.9 58
2019-04-18 11:00:00 19.6 30 Norte 42 Norte 0 1014.1 1.5 61
2019-04-18 10:00:00 19.9 30 Norte 42 Norte 0 1013.7 1.6 55
2019-04-18 09:00:00 18.4 21 Norte 41 Norte 0 1013.4 1.7 63
2019-04-18 08:00:00 17.3 15 Norte 24 Norte 0 1012.6 0.8 70
2019-04-18 07:00:00 17.1 16 Norte 28 Norte 0 1012.1 0.1 71
2019-04-18 06:00:00 17 19 Norte 30 Norte 0 1011.7 -0.8 70
2019-04-18 05:00:00 16.9 15 Norte 24 Norte 0 1011.8 -1.3 72
2019-04-18 04:00:00 17.3 15 Norte 26 Noroeste 0 1012 -1.4 69
2019-04-18 03:00:00 17.5 14 Norte 22 Norte 0 1012.5 -0.9 68
2019-04-18 02:00:00 17.8 17 Norte 28 Norte 0 1013.1 0.2 67
2019-04-18 01:00:00 18.2 17 Norte 28 Norte 0 1013.4 1.7 66
2019-04-18 00:00:00 18.3 14 Norte 32 Noroeste 0 1013.4 2.3 71
2019-04-17 23:00:00 18.6 18 Norte 35 Norte 0 1012.9 2.3 66
2019-04-17 22:00:00 18.9 15 Norte 26 Norte 0 1011.7 -- 56
2019-04-17 21:00:00 18.8 10 Norte 26 Norte 0 1011.1 -- 62
2019-04-17 20:00:00 19.4 18 Norte 30 Norte 0 1010.6 -- 66
2019-04-17 19:00:00 -- 17 Norte 28 Norte 0 -- -- --
2019-04-17 18:00:00 -- 9 Noroeste 22 Norte 0 -- -- --
2019-04-17 17:00:00 -- 18 Norte 28 Norte 0 -- -- --
2019-04-17 16:00:00 -- 12 Nordeste 22 Nordeste 0 -- -- --
2019-04-17 15:00:00 -- 10 Sudeste 21 Sudeste 0 -- -- --
2019-04-17 14:00:00 -- 10 Sudeste 22 Este 0 -- -- --
2019-04-17 13:00:00 -- 13 Este 24 Este 0 -- -- --
2019-04-17 12:00:00 -- 12 Este 21 Este 0 -- -- --
2019-04-17 11:00:00 -- 14 Nordeste 21 Este 0 -- -- --
2019-04-17 10:00:00 -- 9 Nordeste 15 Nordeste 0 -- -- --
2019-04-17 09:00:00 -- 0 Calma 8 Oeste 0 -- -- --
2019-04-17 08:00:00 -- 4 Noroeste 11 Noroeste 0 -- -- --
2019-04-17 07:00:00 -- 9 Noroeste 13 Noroeste 0 -- -- --
2019-04-17 06:00:00 -- 6 Norte 9 Norte 0 -- -- --
2019-04-17 05:00:00 -- 5 Norte 13 Norte 0 -- -- --
2019-04-17 04:00:00 -- 8 Norte 21 Norte 0 -- -- --
2019-04-17 03:00:00 -- 5 Norte 17 Norte 0 -- -- --
2019-04-17 02:00:00 -- 10 Norte 21 Norte 0 -- -- --
2019-04-17 01:00:00 -- 9 Norte 17 Norte 0 -- -- --
2019-04-17 00:00:00 -- 5 Sudoeste 9 Noroeste 0 -- -- --
2019-04-16 23:00:00 -- 6 Sudoeste 9 Norte 0 -- -- --
2019-04-16 22:00:00 -- 2 Este 15 Nordeste 0 -- -- --
2019-04-16 21:00:00 -- 8 Nordeste 13 Nordeste 0 -- -- --
2019-04-16 20:00:00 -- 6 Este 11 Nordeste 0 -- -- --
2019-04-16 19:00:00 -- 9 Este 17 Este 0 -- -- --
2019-04-16 18:00:00 -- 13 Este 21 Este 0 -- -- --
2019-04-16 17:00:00 -- 12 Nordeste 21 Este 0 -- -- --
2019-04-16 16:00:00 -- 13 Este 26 Este 0 -- -- --
2019-04-16 15:00:00 -- 13 Este 22 Este 0 -- -- --
2019-04-16 14:00:00 -- 13 Este 22 Sudeste 0 -- -- --
2019-04-16 13:00:00 -- 14 Este 24 Este 0 -- -- --
2019-04-16 12:00:00 -- 19 Nordeste 28 Nordeste 0 -- -- --
2019-04-16 11:00:00 -- 21 Nordeste 30 Nordeste 0 -- -- --
2019-04-16 10:00:00 -- 21 Nordeste 30 Nordeste 0 -- -- --
2019-04-16 09:00:00 -- 20 Norte 28 Norte 0 -- -- --
2019-04-16 08:00:00 -- 15 Norte 26 Norte 0 -- -- --
2019-04-16 07:00:00 -- 17 Norte 30 Norte 0 -- -- --
2019-04-16 06:00:00 -- 18 Norte 28 Norte 0 -- -- --
2019-04-16 05:00:00 -- 15 Norte 22 Norte 0 -- -- --
2019-04-16 04:00:00 -- 14 Norte 21 Norte 0 -- -- --
2019-04-16 03:00:00 -- 14 Norte 22 Norte 0 -- -- --
2019-04-16 02:00:00 -- 14 Norte 26 Norte 0 -- -- --
2019-04-16 01:00:00 -- 15 Norte 26 Norte 0 -- -- --
2019-04-16 00:00:00 -- 15 Norte 26 Norte 0 -- -- --
2019-04-15 23:00:00 -- 16 Norte 26 Norte 0 -- -- --
2019-04-15 22:00:00 -- 14 Norte 28 Norte 0 -- -- --
2019-04-15 21:00:00 -- 17 Norte 30 Norte 0 -- -- --
2019-04-15 20:00:00 -- 17 Norte 35 Norte 0 -- -- --
2019-04-15 19:00:00 -- 20 Norte 35 Norte 0 -- -- --
2019-04-15 18:00:00 -- 23 Norte 37 Norte 0 -- -- --
2019-04-15 17:00:00 -- 24 Norte 39 Norte 0 -- -- --
2019-04-15 16:00:00 -- 24 Norte 37 Nordeste 0 -- -- --
2019-04-15 15:00:00 -- 23 Norte 39 Norte 0 -- -- --
2019-04-15 14:00:00 -- 29 Norte 42 Norte 0 -- -- --
2019-04-15 13:00:00 -- 31 Nordeste 46 Nordeste 0 -- -- --
2019-04-15 12:00:00 -- 30 Norte 46 Nordeste 0 -- -- --
2019-04-15 11:00:00 -- 24 Norte 39 Norte 0 -- -- --
2019-04-15 10:00:00 -- 22 Norte 39 Norte 0 -- -- --
2019-04-15 09:00:00 -- 24 Norte 35 Norte 0 -- -- --
2019-04-15 08:00:00 -- 20 Norte 30 Norte 0 -- -- --
2019-04-15 07:00:00 -- 19 Norte 30 Norte 0 -- -- --
2019-04-15 06:00:00 -- 22 Norte 35 Norte 0 -- -- --
2019-04-15 05:00:00 -- 12 Norte 22 Norte 0 -- -- --
2019-04-15 04:00:00 -- 13 Norte 33 Norte 0 -- -- --
2019-04-15 03:00:00 -- 20 Norte 32 Norte 0 -- -- --
2019-04-15 02:00:00 -- 10 Norte 18 Norte 0 -- -- --
2019-04-15 01:00:00 -- 11 Norte 24 Norte 0 -- -- --
2019-04-15 00:00:00 -- 10 Norte 28 Norte 0 -- -- --
2019-04-14 23:00:00 -- 17 Norte 28 Norte 0 -- -- --
2019-04-14 22:00:00 -- 12 Norte 28 Norte 0 -- -- --
2019-04-14 21:00:00 -- 16 Norte 30 Norte 0 -- -- --
2019-04-14 20:00:00 -- 22 Norte 35 Norte 0 -- -- --
2019-04-14 19:00:00 -- 30 Nordeste 41 Nordeste 0 -- -- --
2019-04-14 18:00:00 -- 33 Nordeste 41 Nordeste 0 -- -- --
2019-04-14 17:00:00 -- 29 Nordeste 41 Nordeste 0 -- -- --
2019-04-14 16:00:00 -- 28 Nordeste 35 Nordeste 0 -- -- --
2019-04-14 15:00:00 -- 24 Nordeste 37 Nordeste 0 -- -- --
2019-04-14 14:00:00 -- 24 Norte 33 Nordeste 0 -- -- --
2019-04-14 13:00:00 -- 24 Nordeste 33 Nordeste 0 -- -- --
2019-04-14 12:00:00 -- 24 Nordeste 33 Nordeste 0 -- -- --
2019-04-14 11:00:00 -- 24 Nordeste 32 Nordeste 0 -- -- --
2019-04-14 10:00:00 -- 14 Norte 22 Norte 0 -- -- --
2019-04-14 09:00:00 -- 13 Norte 18 Norte 0 -- -- --
2019-04-14 08:00:00 -- 9 Norte 26 Norte 0 -- -- --
2019-04-14 07:00:00 -- 19 Norte 37 Norte 0 -- -- --
2019-04-14 06:00:00 -- 24 Norte 42 Norte 0 -- -- --
2019-04-14 05:00:00 -- 27 Norte 42 Norte 0 -- -- --
2019-04-14 04:00:00 -- 24 Norte 37 Norte 0 -- -- --
2019-04-14 03:00:00 -- 22 Norte 41 Norte 0 -- -- --
2019-04-14 02:00:00 -- 23 Norte 39 Norte 0 -- -- --
2019-04-14 01:00:00 -- 22 Norte 45 Norte 0 -- -- --
2019-04-14 00:00:00 -- 27 Norte 45 Norte 0 -- -- --
2019-04-13 23:00:00 -- 28 Norte 41 Norte 0 -- -- --
2019-04-13 22:00:00 -- 30 Norte 42 Norte 0 -- -- --
2019-04-13 21:00:00 -- 27 Norte 48 Norte 0 -- -- --
2019-04-13 20:00:00 -- 28 Norte 46 Norte 0 -- -- --
2019-04-13 19:00:00 -- 31 Norte 48 Norte 0 -- -- --
2019-04-13 18:00:00 -- 35 Norte 52 Norte 0 -- -- --
2019-04-13 17:00:00 -- 38 Norte 52 Norte 0 -- -- --
2019-04-13 16:00:00 -- 41 Norte 54 Norte 0 -- -- --
2019-04-13 15:00:00 -- 41 Norte 59 Norte 0 -- -- --
2019-04-13 14:00:00 -- 38 Norte 55 Norte 0 -- -- --
2019-04-13 13:00:00 -- 42 Norte 58 Norte 0 -- -- --
2019-04-13 12:00:00 -- 40 Norte 54 Norte 0 -- -- --
2019-04-13 11:00:00 -- 39 Norte 52 Norte 0 -- -- --
2019-04-13 10:00:00 -- 33 Norte 50 Norte 0 -- -- --
2019-04-13 09:00:00 -- 30 Norte 46 Norte 0 -- -- --
2019-04-13 08:00:00 -- 22 Norte 39 Norte 0 -- -- --
2019-04-13 07:00:00 -- 22 Norte 37 Norte 0 -- -- --
2019-04-13 06:00:00 -- 24 Norte 42 Norte 0 -- -- --
2019-04-13 05:00:00 -- 25 Norte 45 Norte 0 -- -- --
2019-04-13 04:00:00 -- 24 Norte 39 Norte 0 -- -- --
2019-04-13 03:00:00 -- 26 Norte 41 Norte 0 -- -- --
2019-04-13 02:00:00 -- 30 Norte 46 Norte 0 -- -- --
2019-04-13 01:00:00 -- 27 Norte 45 Norte 0 -- -- --
2019-04-13 00:00:00 -- 26 Norte 42 Norte 0 -- -- --
2019-04-12 23:00:00 -- 21 Norte 42 Norte 0 -- -- --
2019-04-12 22:00:00 -- 27 Norte 46 Norte 0 -- -- --
2019-04-12 21:00:00 -- 26 Norte 45 Norte 0 -- -- --
2019-04-12 20:00:00 -- 29 Norte 46 Norte 0 -- -- --
2019-04-12 19:00:00 -- 30 Norte 54 Norte 0 -- -- --
2019-04-12 18:00:00 -- 39 Norte 61 Norte 0 -- -- --
2019-04-12 17:00:00 -- 39 Norte 58 Norte 0 -- -- --
2019-04-12 16:00:00 -- 45 Norte 63 Norte 0 -- -- --
2019-04-12 15:00:00 -- 36 Norte 59 Norte 0 -- -- --
2019-04-12 14:00:00 -- 39 Norte 59 Norte 0 -- -- --
2019-04-12 13:00:00 -- 39 Norte 55 Norte 0 -- -- --
2019-04-12 12:00:00 -- 32 Norte 48 Norte 0 -- -- --
2019-04-12 11:00:00 -- 24 Norte 42 Norte 0 -- -- --
2019-04-12 10:00:00 -- 24 Norte 39 Norte 0 -- -- --
2019-04-12 09:00:00 -- 26 Norte 41 Norte 0 -- -- --
2019-04-12 08:00:00 -- 30 Noroeste 42 Noroeste 0 -- -- --
2019-04-12 07:00:00 -- 28 Norte 46 Norte 0 -- -- --
2019-04-12 06:00:00 -- 27 Norte 41 Norte 0 -- -- --
2019-04-12 05:00:00 -- 27 Noroeste 45 Noroeste 0 -- -- --
2019-04-12 04:00:00 -- 26 Norte 50 Norte 0 -- -- --
2019-04-12 03:00:00 -- 30 Norte 54 Norte 0 -- -- --
2019-04-12 02:00:00 -- 31 Norte -- -- -- -- -- --
2019-04-12 01:00:00 -- 23 Norte 42 Norte 0 -- -- --
2019-04-12 00:00:00 -- 26 Norte 52 Norte 0 -- -- --
2019-04-11 23:00:00 -- 32 Norte -- -- -- -- -- --
2019-04-11 22:00:00 -- 32 Norte 55 Norte 0 -- -- --
2019-04-11 21:00:00 -- 23 Norte 42 Noroeste 0 -- -- --
2019-04-11 20:00:00 -- 31 Norte 50 Norte 0 -- -- --
2019-04-11 19:00:00 -- 30 Norte 46 Norte 0 -- -- --
2019-04-11 18:00:00 -- 33 Norte 52 Norte 0 -- -- --
2019-04-11 17:00:00 -- 31 Norte 52 Norte 0 -- -- --
2019-04-11 16:00:00 -- 33 Norte 52 Norte 0 -- -- --
2019-04-11 15:00:00 -- 35 Norte 50 Nordeste 0 -- -- --
2019-04-11 14:00:00 -- 37 Norte 50 Norte 0 -- -- --
2019-04-11 13:00:00 -- 34 Norte 50 Norte 0 -- -- --
2019-04-11 12:00:00 -- 36 Norte 50 Norte 0 -- -- --
2019-04-11 11:00:00 -- 30 Norte 50 Norte 0 -- -- --
2019-04-11 10:00:00 -- 28 Norte 52 Norte 0 -- -- --
2019-04-11 09:00:00 -- 31 Norte 45 Norte 0 -- -- --
2019-04-11 08:00:00 -- 27 Norte 46 Norte 0 -- -- --
2019-04-11 07:00:00 -- 30 Norte 42 Norte 0 -- -- --
2019-04-11 06:00:00 -- 31 Norte 50 Norte 0 -- -- --
2019-04-11 05:00:00 -- 23 Norte 41 Norte 0 -- -- --
2019-04-11 04:00:00 -- 21 Norte 37 Norte 0 -- -- --
2019-04-11 03:00:00 -- 24 Norte 39 Norte 0 -- -- --
2019-04-11 02:00:00 -- 21 Norte -- -- -- -- -- --
2019-04-11 01:00:00 -- 20 Norte 39 Norte 0 -- -- --
2019-04-11 00:00:00 -- 21 Norte 39 Norte 0 -- -- --
2019-04-10 23:00:00 -- 22 Norte 41 Norte 0 -- -- --
2019-04-10 22:00:00 -- 22 Norte 41 Norte 0 -- -- --
2019-04-10 21:00:00 -- 25 Norte 46 Norte 0 -- -- --
2019-04-10 20:00:00 -- 27 Norte 48 Norte 0 -- -- --
2019-04-10 19:00:00 -- 34 Norte 52 Norte 0 -- -- --
2019-04-10 18:00:00 -- 36 Norte 54 Norte 0 -- -- --
2019-04-10 17:00:00 -- 32 Norte 52 Norte 0 -- -- --
2019-04-10 16:00:00 -- 37 Norte 55 Norte 0 -- -- --
2019-04-10 15:00:00 -- 37 Norte 58 Norte 0 -- -- --
2019-04-10 14:00:00 -- 42 Norte 58 Nordeste 0 -- -- --
2019-04-10 13:00:00 -- 29 Norte 52 Norte 0 -- -- --
2019-04-10 12:00:00 -- 29 Norte 52 Norte 0 -- -- --
2019-04-10 11:00:00 -- 41 Norte 55 Norte 0 -- -- --
2019-04-10 10:00:00 -- 29 Norte 45 Norte 0 -- -- --
2019-04-10 09:00:00 -- 25 Norte 41 Norte 0 -- -- --
2019-04-10 08:00:00 -- 21 Norte 37 Norte 0 -- -- --
2019-04-10 07:00:00 -- 21 Norte 37 Noroeste 0 -- -- --
2019-04-10 06:00:00 -- 18 Norte 42 Norte 0 -- -- --
2019-04-10 05:00:00 -- 23 Norte 39 Norte 0 -- -- --
2019-04-10 04:00:00 -- 23 Norte 41 Norte 0 -- -- --
2019-04-10 03:00:00 -- 24 Norte 41 Norte 0 -- -- --
2019-04-10 02:00:00 -- 28 Norte -- -- -- -- -- --
2019-04-10 01:00:00 -- 22 Norte 37 Norte 0 -- -- --
2019-04-10 00:00:00 -- 22 Norte 33 Norte 0 -- -- --
2019-04-09 23:00:00 -- 22 Norte 39 Norte 0 -- -- --
2019-04-09 22:00:00 -- 19 Norte 37 Norte 0 -- -- --
2019-04-09 21:00:00 -- 23 Norte 41 Norte 0 -- -- --
2019-04-09 20:00:00 -- 28 Norte 41 Norte 0 -- -- --
2019-04-09 19:00:00 -- 29 Norte 42 Norte 0 -- -- --
2019-04-09 18:00:00 -- 31 Norte 46 Norte 0 -- -- --
2019-04-09 17:00:00 -- 34 Norte 45 Norte 0 -- -- --
2019-04-09 16:00:00 -- 27 Norte 50 Norte 0 -- -- --
2019-04-09 15:00:00 -- 40 Norte 54 Norte 0 -- -- --
2019-04-09 14:00:00 -- 36 Norte 50 Nordeste 0 -- -- --
2019-04-09 13:00:00 -- 40 Norte 52 Norte 0 -- -- --
2019-04-09 12:00:00 -- 37 Norte 45 Nordeste 0 -- -- --
2019-04-09 11:00:00 -- 28 Nordeste 35 Norte 0 -- -- --
2019-04-09 10:00:00 -- 22 Norte 33 Norte 0 -- -- --
2019-04-09 09:00:00 -- 13 Norte 28 Norte 0 -- -- --
2019-04-09 08:00:00 -- 15 Norte 28 Norte 0 -- -- --
2019-04-09 07:00:00 -- 12 Norte 18 Norte 0 -- -- --
2019-04-09 06:00:00 -- 13 Norte 24 Norte 0 -- -- --
2019-04-09 05:00:00 -- 14 Norte 26 Noroeste 0 -- -- --
2019-04-09 04:00:00 -- 18 Norte 26 Norte 0 -- -- --
2019-04-09 03:00:00 -- 16 Norte 28 Norte 0 -- -- --
2019-04-09 02:00:00 -- 20 Norte -- -- -- -- -- --
2019-04-09 01:00:00 -- 17 Norte 26 Norte 0 -- -- --
2019-04-09 00:00:00 -- 15 Norte 22 Norte 0 -- -- --
2019-04-08 23:00:00 -- 15 Norte 24 Norte 0 -- -- --
2019-04-08 22:00:00 -- 12 Norte 30 Norte 0 -- -- --
2019-04-08 21:00:00 -- 17 Norte 32 Norte 0 -- -- --
2019-04-08 20:00:00 -- 22 Norte 41 Norte 0 -- -- --
2019-04-08 19:00:00 -- 28 Norte 41 Norte 0 -- -- --
2019-04-08 18:00:00 -- 32 Norte 45 Norte 0 -- -- --
2019-04-08 17:00:00 -- 36 Norte 45 Norte 0 -- -- --
2019-04-08 16:00:00 -- 36 Nordeste 42 Nordeste 0 -- -- --
2019-04-08 15:00:00 -- 30 Norte 41 Norte 0 -- -- --
2019-04-08 14:00:00 -- 30 Norte 39 Nordeste 0 -- -- --
2019-04-08 13:00:00 -- 28 Nordeste 37 Norte 0 -- -- --
2019-04-08 12:00:00 -- 31 Nordeste 41 Nordeste 0 -- -- --
2019-04-08 11:00:00 -- 22 Norte 35 Norte 0 -- -- --
2019-04-08 10:00:00 16.5 24 Norte 37 Norte -- 1016.9 1.3 85
2019-04-08 09:00:00 17.3 13 Norte 21 Norte 0 1016.3 1 73
2019-04-08 08:00:00 16.4 7 Norte 18 Norte 0 1016 0.6 76
2019-04-08 07:00:00 17.1 11 Norte 18 Norte 0 1015.6 -0.2 77
2019-04-08 06:00:00 17.2 12 Norte 18 Norte 0 1015.3 -0.6 75
2019-04-08 05:00:00 17.2 12 Norte 18 Norte 0 1015.4 -1.1 78
2019-04-08 04:00:00 16.9 11 Norte 21 Norte 0 1015.8 -1.1 78
2019-04-08 03:00:00 16.5 13 Norte 22 Norte 0 1015.9 -1.3 75
2019-04-08 02:00:00 17.3 12 Norte -- -- -- 1016.5 -0.7 69
2019-04-08 01:00:00 15.5 7 Norte 13 Norte 0 1016.9 0 73
2019-04-08 00:00:00 16 10 Norte 17 Norte 0 1017.2 0.8 77
2019-04-07 23:00:00 16.8 10 Norte 21 Norte 0 1017.2 1.2 75
2019-04-07 22:00:00 17.1 11 Norte 18 Norte 0 1016.9 1.3 75
2019-04-07 21:00:00 17.8 11 Norte 28 Norte 0 1016.4 1.1 70
2019-04-07 20:00:00 18.8 19 Norte 37 Norte 0 1016 0.6 65
2019-04-07 19:00:00 19.4 24 Norte 41 Nordeste 0 1015.6 0 63
2019-04-07 18:00:00 19.1 34 Nordeste 45 Nordeste 0 1015.3 -1.1 66
2019-04-07 17:00:00 19.5 36 Nordeste 46 Norte 0 1015.4 -2 65
2019-04-07 16:00:00 19.7 36 Norte 42 Nordeste 0 1015.6 -1.7 65
2019-04-07 15:00:00 19.7 13 Norte 32 Norte 0 1016.4 -1.3 61
2019-04-07 14:00:00 19.9 10 Sur 41 Nordeste 0 1017.4 0.2 60
2019-04-07 13:00:00 21.2 31 Nordeste 37 Nordeste 0 1017.3 0.4 55
2019-04-07 12:00:00 21.4 28 Nordeste 37 Nordeste 0 1017.7 1.3 51
2019-04-07 11:00:00 20.5 22 Norte 32 Norte 0 1017.2 1.3 51
2019-04-07 10:00:00 19.4 17 Norte 24 Norte 0 1016.9 1.4 52
2019-04-07 09:00:00 17.1 9 Norte 21 Norte 0 1016.4 1.3 56
2019-04-07 08:00:00 13.9 9 Norte 17 Norte 0 1015.9 0.8 66
2019-04-07 07:00:00 15.3 12 Norte 18 Norte 0 1015.5 -0.1 66
2019-04-07 06:00:00 15.3 13 Norte 22 Norte 0 1015.1 -1 72
2019-04-07 05:00:00 15.6 13 Norte 22 Noroeste 0 1015.1 -1.4 70
2019-04-07 04:00:00 15.9 13 Norte 22 Norte 0 1015.6 -1.4 68
2019-04-07 03:00:00 16.3 13 Noroeste 28 Noroeste 0 1016.1 -1.2 68
2019-04-07 02:00:00 16.2 15 Norte 24 Norte 0 1016.5 -0.8 69
2019-04-07 01:00:00 16.2 17 Norte 26 Norte 0 1017 0.1 68
2019-04-07 00:00:00 16.3 14 Norte 21 Norte 0 1017.3 1.1 68
2019-04-06 23:00:00 16.6 13 Norte 26 Norte 0 1017.3 1.5 67
2019-04-06 22:00:00 17.2 19 Norte 32 Norte 0 1016.9 1.8 64
2019-04-06 21:00:00 17.8 22 Norte 37 Norte 0 1016.2 1.3 63
2019-04-06 20:00:00 18.2 23 Norte 41 Noroeste 0 1015.8 0.7 55
2019-04-06 19:00:00 19.6 28 Norte 48 Norte 0 1015.1 -0.5 48
2019-04-06 18:00:00 20.2 30 Norte 46 Norte 0 1014.9 -0.9 48
2019-04-06 17:00:00 20.4 31 Norte 48 Norte 0 1015.1 -1 48
2019-04-06 16:00:00 21.2 36 Norte 48 Norte 0 1015.6 -0.6 45
2019-04-06 15:00:00 21.3 28 Norte 50 Norte 0 1015.8 -0.6 46
2019-04-06 14:00:00 20.7 31 Norte 48 Norte 0 1016.1 0.1 47
2019-04-06 13:00:00 19.7 28 Norte 48 Norte 0 1016.2 0.6 49
2019-04-06 12:00:00 19.3 24 Norte 42 Norte 0 1016.4 1.2 55
2019-04-06 11:00:00 19.3 27 Norte 42 Norte 0 1016 1.5 50
2019-04-06 10:00:00 18.5 22 Noroeste 35 Noroeste 0 1015.6 1.6 56
2019-04-06 09:00:00 17.3 18 Norte 30 Norte 0 1015.2 1.5 64
2019-04-06 08:00:00 15.8 16 Norte 30 Norte 0 1014.5 1.3 70
2019-04-06 07:00:00 15.8 12 Noroeste 22 Noroeste 0 1014 1 60
2019-04-06 06:00:00 15.8 12 Noroeste 22 Oeste 0 1013.7 -0.2 63
2019-04-06 05:00:00 16 9 Noroeste 22 Noroeste 0 1013.2 -1.3 66
2019-04-06 04:00:00 15.6 6 Norte 45 Noroeste 0 1013 -2.1 75
2019-04-06 03:00:00 16.5 28 Noroeste 41 Norte 0 1013.9 -1.3 68
2019-04-06 02:00:00 16.7 22 Norte 37 Norte 0 1014.5 -0.8 68
2019-04-06 01:00:00 16.9 22 Norte 41 Noroeste 0 1015.1 0.5 68
2019-04-06 00:00:00 17.4 17 Norte 32 Norte 0 1015.2 1.5 63
2019-04-05 23:00:00 17.6 20 Norte 37 Norte 0 1015.3 2.1 62
2019-04-05 22:00:00 17.8 19 Norte 32 Norte 0 1014.6 1.8 63
2019-04-05 21:00:00 18 13 Norte 37 Norte 0 1013.7 1.6 64
2019-04-05 20:00:00 18.1 21 Norte 41 Norte 0 1013.2 0.7 66
2019-04-05 19:00:00 19.1 25 Norte 48 Norte 0 1012.8 0.1 62
2019-04-05 18:00:00 19.1 30 Norte 52 Noroeste 0 1012.1 -1.1 61
2019-04-05 17:00:00 20.2 17 Sudeste 26 Sudeste 0 1012.5 -1 55
2019-04-05 16:00:00 19.9 14 Sur 32 Sudeste 0 1012.7 -0.9 56
2019-04-05 15:00:00 21.1 13 Sur 24 Sur 0 1013.2 -0.7 48
2019-04-05 14:00:00 20.4 13 Sur 32 Oeste 0 1013.5 -0.2 52
2019-04-05 13:00:00 20.6 10 Oeste 37 Norte 0 1013.6 0.3 50
2019-04-05 12:00:00 21.7 12 Noroeste 41 Norte 0 1013.9 1 45
2019-04-05 11:00:00 18.7 22 Norte 33 Norte 0 1013.7 1.7 58
2019-04-05 10:00:00 18.5 17 Norte 32 Norte 0 1013.3 1.5 59
2019-04-05 09:00:00 17 16 Noroeste 30 Noroeste 0 1012.9 1.7 64
2019-04-05 08:00:00 15.3 8 Norte 26 Norte 0 1012 1 70
2019-04-05 07:00:00 16.7 19 Noroeste 35 Norte 0 1011.8 0.6 59
2019-04-05 06:00:00 16.1 15 Noroeste 33 Noroeste 0 1011.2 -0.4 59
2019-04-05 05:00:00 15.4 18 Norte 32 Norte 0 1011 -0.8 70
2019-04-05 04:00:00 15.6 14 Norte 28 Norte 0 1011.2 -0.4 71
2019-04-05 03:00:00 15.5 16 Norte 32 Norte 0 1011.6 0.1 78
2019-04-05 02:00:00 15.8 17 Norte 26 Norte 0 1011.8 0.6 76
2019-04-05 01:00:00 15.8 14 Norte 26 Noroeste 0 1011.6 0.9 76
2019-04-05 00:00:00 16.6 15 Norte 26 Norte 0 1011.5 1.6 71
2019-04-04 23:00:00 16.8 11 Norte 24 Norte 0 1011.2 1.6 70
2019-04-04 22:00:00 16.7 17 Norte 30 Norte 0 1010.7 1.4 70
2019-04-04 21:00:00 17.1 16 Norte 32 Norte 0 1009.9 1 70
2019-04-04 20:00:00 17.7 22 Norte 35 Norte 0 1009.6 1 66
2019-04-04 19:00:00 18.1 24 Norte 42 Norte 0.2 1009.3 0.4 74
2019-04-04 18:00:00 19.8 27 Norte 45 Norte 0 1008.9 0.1 57
2019-04-04 17:00:00 19.9 30 Norte 42 Norte 0 1008.6 -0.3 62
2019-04-04 16:00:00 20.1 24 Norte 42 Norte 0 1008.9 -0.2 58
2019-04-04 15:00:00 21.8 26 Norte 41 Norte 0 1008.8 -0.2 46
2019-04-04 14:00:00 21.1 26 Norte 48 Norte 0 1008.9 -0.2 53
2019-04-04 13:00:00 20.3 22 Norte 48 Norte 0 1009.1 0.8 57
2019-04-04 12:00:00 20.2 27 Norte 45 Norte 0 1009 1.2 60
2019-04-04 11:00:00 19.8 16 Norte 26 Noroeste 0 1009.1 1.8 55
2019-04-04 10:00:00 18.5 12 Norte 18 Norte 0 1008.3 1.5 61
2019-04-04 09:00:00 15.8 0 Calma 13 Noroeste 0 1007.8 1.3 76
2019-04-04 08:00:00 14.4 10 Oeste 13 Oeste 0 1007.3 0.8 78
2019-04-04 07:00:00 13.9 8 Oeste 11 Oeste 0 1006.8 -0.1 80
2019-04-04 06:00:00 13.8 5 Oeste 9 Oeste 0 1006.5 -0.7 84
2019-04-04 05:00:00 14.1 8 Oeste 11 Noroeste 0 1006.5 -1 82
2019-04-04 04:00:00 14.8 0 Calma 13 Sudoeste 0.2 1006.9 -1 82
2019-04-04 03:00:00 15 6 Oeste 9 Oeste 0 1007.2 -0.8 76
2019-04-04 02:00:00 15.3 8 Oeste 18 Noroeste 0 1007.5 -0.5 72
2019-04-04 01:00:00 15.5 9 Oeste 13 Noroeste 0 1007.9 0.4 72
2019-04-04 00:00:00 15.9 9 Oeste 13 Oeste 0 1008 1.5 76
2019-04-03 23:00:00 16.4 7 Noroeste 15 Norte 0 1008 1.8 77
2019-04-03 22:00:00 17.4 5 Noroeste 9 Norte 0 1007.5 1.4 73
2019-04-03 21:00:00 18.4 0 Calma 9 Norte 0 1006.5 0.5 68
2019-04-03 20:00:00 18.7 9 Nordeste 15 Nordeste 0 1006.2 0.1 66
2019-04-03 19:00:00 19.1 14 Nordeste 24 Nordeste 0 1006.1 -0.2 66
2019-04-03 18:00:00 19.8 18 Nordeste 28 Nordeste 0 1006 -0.7 66
2019-04-03 17:00:00 19.4 16 Nordeste 22 Nordeste 0 1006.1 -1.3 64
2019-04-03 16:00:00 19 14 Nordeste 28 Norte 0 1006.3 -1.6 69
2019-04-03 15:00:00 19.5 15 Nordeste 28 Norte 0 1006.7 -1.4 72
2019-04-03 14:00:00 18.4 18 Norte 30 Norte 3.6 1007.4 -0.1 76
2019-04-03 13:00:00 17.7 18 Norte 30 Norte 3.7 1007.9 0.7 86
2019-04-03 12:00:00 17.5 13 Norte 22 Norte 2.8 1008.1 1.5 83
2019-04-03 11:00:00 18.4 11 Norte 17 Norte 0.6 1007.5 1.3 82
2019-04-03 10:00:00 17.2 8 Norte 13 Norte 0.4 1007.2 1.5 85
2019-04-03 09:00:00 17.8 4 Norte 9 Noroeste 0 1006.6 1.3 77
2019-04-03 08:00:00 17.3 4 Oeste 15 Norte 0 1006.2 0.5 79
2019-04-03 07:00:00 17.4 7 Norte 13 Norte 0 1005.7 -0.1 77
2019-04-03 06:00:00 17.3 0 Calma 9 Norte 0 1005.3 -0.8 80
2019-04-03 05:00:00 17.5 0 Calma -- -- 0 1005.7 -0.9 80
2019-04-03 04:00:00 17.5 0 Calma 4 Oeste 0 1005.8 -1.4 81
2019-04-03 03:00:00 17.6 0 Calma 5 Oeste 0 1006.1 -1.3 83
2019-04-03 02:00:00 17.8 4 Norte 9 Norte 0 1006.6 -0.7 80
2019-04-03 01:00:00 18.2 8 Norte 13 Norte 0 1007.2 0.8 80
2019-04-03 00:00:00 18.3 5 Norte 11 Nordeste 0 1007.4 2.1 77
2019-04-02 23:00:00 18.1 2 Norte 15 Norte 0 1007.3 2.1 78
2019-04-02 22:00:00 18.2 7 Norte 17 Norte 0 1006.4 1.6 77
2019-04-02 21:00:00 18.5 10 Norte 21 Norte 0 1005.3 0.7 75
2019-04-02 20:00:00 19.3 13 Norte 24 Norte 0 1005.2 0.5 72
2019-04-02 19:00:00 20 13 Norte 26 Norte 0 1004.8 -0.5 69
2019-04-02 18:00:00 20.5 11 Este 28 Este 0 1004.6 -1.1 68
2019-04-02 17:00:00 21.2 16 Nordeste 24 Nordeste 0 1004.7 -1.4 61
2019-04-02 16:00:00 21.3 13 Este 22 Este 0 1005.3 -1.2 63
2019-04-02 15:00:00 20.8 11 Este 22 Este 0 1005.7 -1.3 66
2019-04-02 14:00:00 20.8 14 Sudeste 28 Sudeste 0 1006.1 -1.1 65
2019-04-02 13:00:00 21 16 Este 22 Este 0 1006.5 -0.5 65
2019-04-02 12:00:00 20.6 13 Este 18 Este 0 1007 0.3 66
2019-04-02 11:00:00 20 10 Este 15 Este 0 1007.2 0.7 68
2019-04-02 10:00:00 19.4 6 Sudeste 32 Nordeste 0 1007 0.9 71
2019-04-02 09:00:00 17.8 0 Calma 9 Sur 0 1006.7 0.8 79
2019-04-02 08:00:00 16.5 8 Oeste 9 Oeste 0 1006.5 0.4 83
2019-04-02 07:00:00 16.3 5 Oeste 13 Oeste 0 1006.1 -0.4 81
2019-04-02 06:00:00 16.1 8 Oeste 11 Oeste 0 1005.9 -1.1 84
2019-04-02 05:00:00 16 6 Oeste 11 Oeste 0 1006.1 -1.6 84
2019-04-02 04:00:00 15.7 9 Oeste 13 Noroeste 0 1006.5 -1.6 83
2019-04-02 03:00:00 15.7 8 Noroeste 9 Noroeste 0 1007 -1.8 81
2019-04-02 02:00:00 16 9 Noroeste 11 Noroeste 0 1007.7 -1.3 76
2019-04-02 01:00:00 15.8 8 Noroeste 11 Oeste 0 1008.1 -0.5 79
2019-04-02 00:00:00 16.1 9 Oeste 11 Oeste 0 1008.8 0.7 80
2019-04-01 23:00:00 16 6 Noroeste -- -- 0 1009 1.2 80
2019-04-01 22:00:00 16.4 8 Oeste 9 Oeste 0 1008.6 0.6 81
2019-04-01 21:00:00 17.3 0 Calma 8 Este 0 1008.1 0.3 76
2019-04-01 20:00:00 18 0 Calma 8 Este 0 1007.8 -0.1 72
2019-04-01 19:00:00 18.4 3 Sudeste 17 Este 0 1008 -0.7 71
2019-04-01 18:00:00 18.7 9 Este 18 Este 0 1007.8 -1.6 69
2019-04-01 17:00:00 18.8 5 Sudeste 13 Sudeste 0 1007.9 -2.2 70
2019-04-01 16:00:00 17.9 5 Oeste 11 Noroeste 0 1008.7 -1.7 74
2019-04-01 15:00:00 18.1 6 Noroeste 13 Nordeste 0 1009.4 -1.4 75
2019-04-01 14:00:00 18.2 8 Nordeste 21 Este 0 1010.1 -0.8 74
2019-04-01 13:00:00 19.3 13 Este 24 Este 0 1010.4 -0.5 69
2019-04-01 12:00:00 19.8 15 Este 24 Nordeste 0 1010.8 0.3 66
2019-04-01 11:00:00 19.8 14 Nordeste 22 Nordeste 0 1010.9 0.8 64
2019-04-01 10:00:00 18.9 8 Norte 17 Norte 0 1010.9 1.2 66
2019-04-01 09:00:00 16.6 2 Oeste 11 Oeste 0 1010.5 1.1 71
2019-04-01 08:00:00 15 7 Oeste 11 Oeste 0 1010.1 0.6 74
2019-04-01 07:00:00 15.4 6 Noroeste 15 Norte 0 1009.7 -0.1 66
2019-04-01 06:00:00 15.8 8 Noroeste 15 Norte 0 1009.4 -0.7 66
2019-04-01 05:00:00 16.1 10 Noroeste 18 Norte 0 1009.5 -1.3 74
2019-04-01 04:00:00 16.8 12 Norte 24 Noroeste 0 1009.8 -1.2 75
2019-04-01 03:00:00 16.4 14 Norte 26 Norte 0 1010.1 -1.5 77
2019-04-01 02:00:00 15.8 13 Norte 22 Norte 0 1010.8 -0.9 69
2019-04-01 01:00:00 16.6 10 Norte 21 Norte 0 1011 -0.4 68
2019-04-01 00:00:00 16.1 11 Norte 15 Norte 0 1011.6 0.6 71
2019-03-31 23:00:00 16.6 6 Noroeste 11 Norte 0 1011.7 0.7 75
2019-03-31 22:00:00 17.8 6 Norte 17 Norte 0 1011.4 0.7 70
2019-03-31 21:00:00 18.4 12 Nordeste 17 Nordeste 0 1011 0.4 71
2019-03-31 20:00:00 18.9 9 Nordeste 17 Nordeste 0 1011 0.2 72
2019-03-31 19:00:00 19.3 6 Sudeste 15 Sur 0 1010.7 -0.5 74
2019-03-31 18:00:00 19.2 6 Sur 17 Sudeste 0 1010.6 -0.8 73
2019-03-31 17:00:00 18.9 9 Sudeste 22 Sudeste 0 1010.8 -0.7 71
2019-03-31 16:00:00 18.9 12 Sur 22 Sudeste 0 1011.2 -0.8 68
2019-03-31 15:00:00 19.5 16 Sur 32 Sudeste 0 1011.4 -1.4 65
2019-03-31 14:00:00 21.1 21 Sudeste 35 Sudeste 0 1011.5 -1.3 59
2019-03-31 13:00:00 20.6 19 Sudeste 33 Sudeste 0 1012 -0.4 62
2019-03-31 12:00:00 20.5 19 Sur 32 Sudeste 0 1012.8 0.9 57
2019-03-31 11:00:00 19.2 11 Sur 21 Sur 0 1012.8 1.4 68
2019-03-31 10:00:00 18.1 11 Sur 15 Sur 0 1012.4 1.6 72
2019-03-31 09:00:00 15.6 8 Oeste 18 Oeste 0 1011.9 1 78
2019-03-31 08:00:00 13.6 14 Oeste 17 Oeste 0 1011.4 0.1 79
2019-03-31 07:00:00 13.3 14 Oeste 18 Oeste 0 1010.8 -1 77
2019-03-31 06:00:00 13.4 13 Oeste 17 Oeste 0 1010.9 -1.3 79
2019-03-31 05:00:00 14 14 Oeste 17 Oeste 0 1011.3 -1.3 78
2019-03-31 04:00:00 13.7 10 Oeste 13 Oeste 0 1011.8 -1 81
2019-03-31 00:00:00 14.8 10 Oeste 17 Oeste 0 1012.8 -0.2 75
2019-03-30 23:00:00 15.4 9 Noroeste 13 Noroeste 0 1013.5 1 75
2019-03-30 22:00:00 15.7 8 Oeste 13 Oeste 0 1013.5 1.6 77
2019-03-30 21:00:00 16.3 0 Calma 11 Norte 0 1013 1.4 76
2019-03-30 20:00:00 17.2 6 Noroeste 24 Norte 0 1012.5 1 76
2019-03-30 19:00:00 17.5 4 Nordeste 11 Nordeste 0 1011.9 0.6 74
2019-03-30 18:00:00 17.3 0 Calma 11 Oeste 0.9 1011.6 0.1 80
2019-03-30 17:00:00 17.5 9 Sudoeste 17 Oeste 0 1011.5 -0.4 73
2019-03-30 16:00:00 18.2 13 Norte 22 Nordeste 0 1011.3 -1 71
2019-03-30 15:00:00 17.9 13 Nordeste 18 Este 0.1 1011.5 -0.7 71
2019-03-30 14:00:00 18.1 14 Nordeste 28 Nordeste 0 1011.9 -0.5 68
2019-03-30 13:00:00 18.3 22 Nordeste 32 Norte 0 1012.3 0.1 73
2019-03-30 12:00:00 19.2 23 Nordeste 32 Nordeste 0 1012.2 0.3 67
2019-03-30 11:00:00 18.2 20 Norte 28 Norte 0 1012.4 1.5 69
2019-03-30 10:00:00 17.6 22 Norte 37 Norte 0 1012.2 1.7 66
2019-03-30 09:00:00 16.6 19 Norte 32 Norte 0 1011.9 1.9 74
2019-03-30 08:00:00 15.8 6 Noroeste 13 Oeste 0 1010.9 1 76
2019-03-30 07:00:00 14.3 11 Noroeste 15 Oeste 0 1010.5 0.6 76
2019-03-30 06:00:00 14.3 11 Oeste 15 Oeste 0 1010 -0.2 80
2019-03-30 05:00:00 13.8 8 Oeste 15 Oeste 0 1009.9 -1 81
2019-03-30 04:00:00 14.2 12 Oeste 17 Oeste 0 1009.9 -1.4 78
2019-03-30 03:00:00 14.9 9 Oeste 13 Oeste 0 1010.2 -1.4 77
2019-03-30 02:00:00 14.5 9 Noroeste 11 Noroeste 0 1010.9 -0.9 78
2019-03-30 01:00:00 15.3 7 Noroeste 17 Noroeste 0 1011.3 -0.3 76
2019-03-30 00:00:00 14.7 10 Noroeste 13 Noroeste 0 1011.6 0.4 76
2019-03-29 23:00:00 15.4 8 Noroeste 13 Noroeste 0 1011.8 1.3 78
2019-03-29 22:00:00 16 7 Noroeste 11 Noroeste 0 1011.6 1.7 85
2019-03-29 21:00:00 16.6 8 Noroeste 17 Noroeste 0 1011.2 1.2 82
2019-03-29 20:00:00 16.9 13 Noroeste 21 Noroeste 0 1010.5 0.5 79
2019-03-29 19:00:00 17.6 12 Norte 32 Norte 0.4 1009.9 -0.3 85
2019-03-29 18:00:00 17.3 21 Noroeste 28 Noroeste 1 1010 -0.6 88
2019-03-29 17:00:00 17.9 11 Este 32 Nordeste 0.7 1010 -1.2 82
2019-03-29 16:00:00 18.7 18 Este 32 Este 0.2 1010.2 -1.7 79
2019-03-29 15:00:00 19.6 21 Sudeste 32 Sudeste 0 1010.6 -1.8 71
2019-03-29 14:00:00 19.9 21 Sudeste 32 Sudeste 0 1011.2 -1.3 71
2019-03-29 13:00:00 20.2 19 Sudeste 33 Sudeste 0 1011.9 -0.7 69
2019-03-29 12:00:00 20.3 18 Sudeste 26 Sudeste 0 1012.4 0 68
2019-03-29 11:00:00 19.9 14 Sudeste 22 Sudeste 0 1012.5 0.5 67
2019-03-29 10:00:00 19.5 10 Este 18 Este 0 1012.6 0.9 68
2019-03-29 09:00:00 18.8 5 Este 11 Oeste 0 1012.4 1.1 70
2019-03-29 08:00:00 15.7 10 Oeste 13 Oeste 0 1012 0.8 77
2019-03-29 07:00:00 14.9 10 Oeste 15 Oeste 0 1011.7 0.4 81
2019-03-29 06:00:00 14.1 8 Oeste 11 Oeste 0 1011.3 -0.1 85
2019-03-29 05:00:00 14.9 9 Oeste 11 Oeste 0 1011.2 -0.4 83
2019-03-29 04:00:00 15.4 10 Oeste 11 Noroeste 0 1011.3 -0.9 83
2019-03-29 03:00:00 15.8 8 Noroeste 11 Noroeste 0 1011.4 -1.4 83
2019-03-29 02:00:00 15.5 8 Noroeste 11 Noroeste 0 1011.6 -1.5 82
2019-03-29 01:00:00 16.4 7 Noroeste 11 Noroeste 0 1012.2 -0.9 82
2019-03-29 00:00:00 17 8 Noroeste 11 Noroeste 0 1012.8 -0.1 80
2019-03-28 23:00:00 17 6 Noroeste 9 Oeste 0 1013.1 0.6 80
2019-03-28 22:00:00 17.1 6 Noroeste 13 Noroeste 0 1013.1 1.1 76
2019-03-28 21:00:00 17.6 8 Noroeste 13 Noroeste 0 1012.9 1.2 77
2019-03-28 20:00:00 18.1 9 Norte 22 Nordeste 0 1012.5 0.9 77
2019-03-28 19:00:00 18.4 11 Nordeste 17 Nordeste 0 1012 0.6 75
2019-03-28 18:00:00 18.6 12 Nordeste 26 Este 0 1011.7 0 75
2019-03-28 17:00:00 18.9 13 Nordeste 21 Nordeste 0 1011.6 -0.6 73
2019-03-28 16:00:00 18.9 13 Este 21 Este 0 1011.4 -1.3 74
2019-03-28 15:00:00 19.1 13 Nordeste 22 Nordeste 0 1011.7 -1.4 74
2019-03-28 14:00:00 19.6 13 Este 24 Este 0 1012.2 -1 72
2019-03-28 13:00:00 20 14 Este 24 Este 0 1012.7 -0.5 70
2019-03-28 12:00:00 20.1 15 Este 22 Este 0 1013.1 0.3 69
2019-03-28 11:00:00 20 15 Este 24 Nordeste 0 1013.2 0.8 71
2019-03-28 10:00:00 19.3 14 Nordeste 22 Nordeste 0 1013.2 1 71
2019-03-28 09:00:00 18.3 10 Norte 17 Norte 0 1012.8 1.1 74
2019-03-28 08:00:00 15.9 8 Noroeste 13 Noroeste 0 1012.4 1 75
2019-03-28 07:00:00 15.1 12 Noroeste 17 Noroeste 0 1012.2 1.1 80
2019-03-28 06:00:00 14.9 10 Noroeste 15 Noroeste 0 1011.7 0.3 82
2019-03-28 05:00:00 14.6 10 Noroeste 13 Noroeste 0 1011.4 -0.3 76
2019-03-28 04:00:00 14.9 10 Noroeste 11 Noroeste 0 1011.1 -1 75
2019-03-28 03:00:00 15.2 6 Norte 15 Noroeste 0 1011.4 -0.9 77
2019-03-28 02:00:00 15.5 8 Noroeste 13 Noroeste 0 1011.7 -0.6 77
2019-03-28 01:00:00 15.9 12 Noroeste 15 Noroeste 0 1012.1 0 77
2019-03-28 00:00:00 16.3 10 Noroeste 15 Noroeste 0 1012.3 0.9 80
2019-03-27 23:00:00 16.4 9 Norte 13 Norte 0 1012.3 1.5 82
2019-03-27 22:00:00 17.1 12 Noroeste 21 Norte 0 1012.1 1.8 79
2019-03-27 21:00:00 17.6 15 Norte 24 Norte 0 1011.4 1.3 75
2019-03-27 20:00:00 17.8 12 Norte 22 Norte 0 1010.8 0.9 75
2019-03-27 19:00:00 18.2 20 Norte 26 Norte 0 1010.3 0.5 77
2019-03-27 18:00:00 18.9 12 Norte 24 Norte 0 1010.1 0.1 74
2019-03-27 17:00:00 18.8 17 Nordeste 22 Nordeste 0 1009.9 -0.2 78
2019-03-27 16:00:00 18.4 10 Nordeste 17 Norte 0.7 1009.8 -0.7 85
2019-03-27 15:00:00 18.5 11 Nordeste 22 Este 0.2 1010 -0.5 83
2019-03-27 14:00:00 19.1 15 Este 26 Este 0 1010.1 -0.4 75
2019-03-27 13:00:00 20 19 Nordeste 35 Nordeste 0 1010.5 -0.1 74
2019-03-27 12:00:00 20.5 30 Nordeste 37 Nordeste 0 1010.5 0.6 71
2019-03-27 11:00:00 19.6 24 Nordeste 30 Nordeste 0 1010.5 1.4 75
2019-03-27 10:00:00 17.8 4 Sur 11 Sudoeste 0 1010.6 2.2 74
2019-03-27 09:00:00 18 7 Sudoeste 9 Sudoeste 0 1009.9 2.3 69
2019-03-27 08:00:00 15.5 2 Oeste 11 Oeste 0 1009.1 2 78
2019-03-27 07:00:00 14.3 4 Oeste 13 Oeste 0 1008.4 1.5 80
2019-03-27 06:00:00 14.4 7 Oeste 15 Oeste 0 1007.6 0.6 79
2019-03-27 05:00:00 14.7 5 Oeste 9 Sur 0 1007.1 -0.2 79
2019-03-27 04:00:00 14.4 5 Oeste 13 Oeste 0 1006.9 -0.4 80
2019-03-27 03:00:00 14.5 8 Sudoeste 11 Oeste 0 1007 -0.1 80
2019-03-27 02:00:00 15.3 4 Sudoeste 13 Oeste 0 1007.3 0 76
2019-03-27 01:00:00 15.3 5 Oeste 17 Norte 0 1007.3 0.4 75
2019-03-27 00:00:00 15.4 10 Noroeste 15 Norte 0 1007.1 0.6 77
2019-03-26 23:00:00 15.7 4 Oeste 13 Oeste 0 1007.3 1.7 73
2019-03-26 22:00:00 15.8 9 Noroeste 17 Norte 0 1006.9 1.8 81
2019-03-26 21:00:00 16.7 9 Norte 11 Norte 0 1006.5 1.9 80
2019-03-26 20:00:00 17.6 6 Nordeste 9 Este 0 1005.6 1.7 77
2019-03-26 19:00:00 18.2 3 Norte 15 Sur 0 1005.1 1.5 68
2019-03-26 18:00:00 18.4 12 Sur 18 Sudeste 0 1004.6 1 77
2019-03-26 17:00:00 18.6 10 Sudeste 18 Este 0 1003.9 0.1 70
2019-03-26 16:00:00 18.6 5 Este 13 Este 0 1003.6 -0.6 69
2019-03-26 15:00:00 18.7 3 Sur 11 Este 0 1003.6 -0.9 69
2019-03-26 14:00:00 17.7 9 Sudoeste 13 Sudoeste 0 1003.8 -0.4 78
2019-03-26 13:00:00 17.1 6 Sur 11 Sur 2.5 1004.2 0.3 83
2019-03-26 12:00:00 16.6 0 Calma 22 Sudeste 5 1004.5 1.3 81
2019-03-26 11:00:00 19.4 17 Sudeste 24 Sudeste 0 1004.2 1.8 68
2019-03-26 10:00:00 18.8 7 Sudeste 15 Este 0 1003.9 2.2 66
2019-03-26 09:00:00 17.8 4 Este 11 Este 0 1003.2 1.7 66
2019-03-26 08:00:00 15.3 6 Oeste 13 Oeste 0 1002.4 1.3 74
2019-03-26 07:00:00 13.4 9 Oeste 13 Oeste 0 1001.7 0.7 80
2019-03-26 06:00:00 13.4 9 Oeste 13 Oeste 0 1001.5 0 81
2019-03-26 05:00:00 13.6 10 Oeste 13 Oeste 0 1001.1 -0.7 83
2019-03-26 04:00:00 13.4 6 Oeste 11 Oeste 0 1001 -1 87
2019-03-26 03:00:00 13.9 9 Oeste 13 Oeste 0 1001.5 -0.5 86
2019-03-26 02:00:00 13.9 4 Sudoeste 9 Sudoeste 0 1001.8 -0.5 86
2019-03-26 01:00:00 15.2 3 Norte 13 Oeste 0 1002 -0.6 81
2019-03-26 00:00:00 15.2 10 Sudoeste 17 Sur 0 1002 -0.2 86
2019-03-25 23:00:00 15.6 12 Sudoeste 18 Sudoeste 0.1 1002.3 0.2 87
2019-03-25 22:00:00 16.2 10 Sur 17 Sur 0 1002.6 1.1 88
2019-03-25 21:00:00 16 9 Sur 15 Sur 0 1002.2 0.7 88
2019-03-25 20:00:00 16.2 11 Sur 17 Sur 0 1002.1 0.7 86
2019-03-25 19:00:00 16.4 10 Sur 21 Sur 0 1001.5 0.1 83
2019-03-25 18:00:00 17.3 17 Sur 24 Sur 0 1001.5 -1 74
2019-03-25 17:00:00 18.2 11 Sur 17 Sur 0 1001.4 -1 70
2019-03-25 16:00:00 17 3 Norte 24 Sudoeste 2.7 1001.4 -1.3 82
2019-03-25 15:00:00 16 16 Sudoeste 32 Sudoeste 1.7 1002.5 -1 83
2019-03-25 14:00:00 19.3 9 Oeste 45 Sur 0 1002.4 -1.9 61
2019-03-25 13:00:00 20.9 20 Sur 33 Sur 0 1002.7 -1.7 53
2019-03-25 12:00:00 20.1 21 Sur 32 Sur 0 1003.5 -0.7 56
2019-03-25 11:00:00 19.2 17 Sur 26 Sudeste 0 1004.3 0.3 68
2019-03-25 10:00:00 17.9 19 Sur 26 Sur 0 1004.4 0.7 69
2019-03-25 09:00:00 16.7 15 Sur 22 Sur 0 1004.2 0.3 75
2019-03-25 08:00:00 15.8 7 Sudoeste 11 Sur 0 1004 0 75
2019-03-25 07:00:00 14.3 -- -- -- -- 0 1003.7 -0.6 77
2019-03-25 06:00:00 14.5 9 Oeste -- -- 0 1003.9 -0.9 79
2019-03-25 05:00:00 14.5 7 Oeste -- -- 0 1004 -1 76
2019-03-25 04:00:00 14.5 8 Oeste -- -- 0 1004.3 -1.3 80
2019-03-25 03:00:00 -- 8 Oeste 9 Oeste 0 1004.8 -1.4 --
2019-03-25 02:00:00 15.1 -- -- -- -- 0 1005 -1.6 79
2019-03-25 01:00:00 15.1 -- -- -- -- 0 1005.6 -0.9 79
2019-03-25 00:00:00 15.6 2 Sudoeste 5 Sudoeste 0 1006.2 -0.1 78
2019-03-24 23:00:00 16.4 4 Oeste 5 Oeste 0 1006.6 0.7 76
2019-03-24 22:00:00 17.1 3 Este 9 Nordeste 0 1006.5 1.2 75
2019-03-24 21:00:00 17.7 9 Nordeste 17 Nordeste 0 1006.3 0.9 73
2019-03-24 20:00:00 18 12 Nordeste 21 Nordeste 0 1005.9 0.1 69
2019-03-24 19:00:00 18.2 15 Nordeste 24 Nordeste 0 1005.3 -0.5 67
2019-03-24 18:00:00 18.7 19 Nordeste 26 Norte 0 1005.4 -0.7 66
2019-03-24 17:00:00 19 17 Norte 26 Nordeste 0 1005.8 -0.8 62
2019-03-24 16:00:00 19.5 17 Nordeste 28 Nordeste 0 1005.8 -1.2 62
2019-03-24 15:00:00 19.9 16 Nordeste 26 Este 0 1006.1 -1.5 59
2019-03-24 14:00:00 20 18 Nordeste 28 Nordeste 0 1006.6 -1.7 57
2019-03-24 13:00:00 19.3 19 Nordeste 32 Nordeste 0 1007 -1.5 59
2019-03-24 12:00:00 20 22 Nordeste 32 Nordeste 0 1007.6 -1 57
2019-03-24 11:00:00 19.4 18 Nordeste 28 Nordeste 0 1008.3 0.1 56
2019-03-24 10:00:00 19.4 18 Nordeste 26 Nordeste 0 1008.5 0.4 56
2019-03-24 09:00:00 18.6 10 Norte 18 Noroeste 0 1008.6 1.5 51
2019-03-24 08:00:00 16.4 10 Noroeste 15 Noroeste 0 1008.2 1.2 66
2019-03-24 07:00:00 15.6 8 Noroeste 21 Norte 0 1008.1 1 69
2019-03-24 06:00:00 15.8 14 Norte 26 Noroeste 0 1007.1 -0.4 71
2019-03-24 05:00:00 15.8 13 Norte 26 Norte 0 1007 -0.9 68
2019-03-24 04:00:00 16 15 Norte 22 Norte 0 1007.1 -1.3 72
2019-03-24 03:00:00 16 17 Norte 28 Norte 0 1007.5 -1.3 70
2019-03-24 02:00:00 16.1 17 Norte 33 Norte 0 1007.9 -0.9 70
2019-03-24 01:00:00 16.3 21 Norte 33 Norte 0 1008.4 -0.5 69
2019-03-24 00:00:00 16.4 21 Norte 37 Noroeste 0 1008.8 0.8 68
2019-03-23 23:00:00 16.7 23 Norte 39 Norte 0 1008.8 1.1 63
2019-03-23 22:00:00 16.7 22 Norte 42 Norte 0 1008.9 1.6 65
2019-03-23 21:00:00 17 24 Norte 45 Norte 0 1008 0.4 63
2019-03-23 20:00:00 17.3 27 Norte 46 Norte 0 1007.7 -0.3 61
2019-03-23 19:00:00 18.1 27 Norte 48 Norte 0 1007.3 -1 61
2019-03-23 18:00:00 18.9 33 Norte 48 Norte 0 1007.6 -1.2 62
2019-03-23 17:00:00 20 33 Norte 55 Norte 0 1008 -1.4 54
2019-03-23 16:00:00 20.1 39 Norte 59 Norte 0 1008.3 -0.6 54
2019-03-23 15:00:00 20.4 39 Norte 59 Norte 0 1008.8 -0.7 51
2019-03-23 14:00:00 21 49 Norte 61 Nordeste 0 1009.4 -0.7 52
2019-03-23 13:00:00 20.7 38 Norte 61 Norte 0 1008.9 -0.8 52
2019-03-23 12:00:00 20 39 Norte 58 Norte 0 1009.5 0.1 55
2019-03-23 11:00:00 20.1 33 Norte 58 Norte 0 1010.1 1 55
2019-03-23 10:00:00 19.1 36 Norte 54 Norte 0 1009.7 0.7 59
2019-03-23 09:00:00 18.4 32 Norte 54 Norte 0 1009.4 0.5 61
2019-03-23 08:00:00 17.2 29 Norte 46 Norte 0 1009.1 0.8 68
2019-03-23 07:00:00 16.9 27 Norte 42 Norte 0 1009 0.8 69
2019-03-23 06:00:00 16.9 28 Norte 52 Norte 0 1008.9 0.1 69
2019-03-23 05:00:00 16.8 34 Norte 50 Norte 0 1008.3 -2.1 72
2019-03-23 04:00:00 16.8 29 Norte 48 Norte 0 1008.2 -1.4 71
2019-03-23 03:00:00 16.8 32 Norte 48 Norte 0 1008.8 -1.9 72
2019-03-23 02:00:00 17 23 Norte 54 Norte 0 1010.4 0.6 73
2019-03-23 01:00:00 17.2 34 Norte 52 Norte 0 1009.6 0.2 71
2019-03-23 00:00:00 17.5 32 Norte 52 Norte 0 1010.7 1.3 71
2019-03-22 23:00:00 17.3 33 Norte 54 Norte 0 1009.8 1 71
2019-03-22 22:00:00 17.5 34 Norte 55 Norte 0 1009.4 1.6 68
2019-03-22 21:00:00 17.7 31 Norte 58 Norte 0 1009.4 1.2 70
2019-03-22 20:00:00 17.8 32 Norte 54 Norte 0 1008.8 0.9 68
2019-03-22 19:00:00 18 37 Norte 61 Norte 0 1007.8 -0.4 67
2019-03-22 18:00:00 18.9 44 Norte 63 Norte 0 1008.2 -0.3 66
2019-03-22 17:00:00 19.6 44 Norte 63 Norte 0 1007.9 -1.5 62
2019-03-22 16:00:00 20.1 39 Norte 61 Norte 0 1008.2 -2.3 59
2019-03-22 15:00:00 20.4 46 Norte 63 Norte 0 1008.5 -3.1 55
2019-03-22 14:00:00 19.8 35 Norte 63 Norte 0 1009.4 -2.1 54
2019-03-22 13:00:00 20.4 37 Norte 58 Norte 0 1010.5 -0.8 51
2019-03-22 12:00:00 18.1 33 Norte 54 Norte 0 1011.6 0.8 60
2019-03-22 11:00:00 18.5 41 Norte 63 Norte 0 1011.5 1.2 59
2019-03-22 10:00:00 18.4 37 Norte 54 Norte 0 1011.3 1.6 59
2019-03-22 09:00:00 17.1 30 Norte 54 Norte 0 1010.8 1.7 64
2019-03-22 08:00:00 16.9 30 Norte 54 Norte 0 1010.3 1.2 64
2019-03-22 07:00:00 16.7 32 Norte 58 Norte 0 1009.7 0.1 65
2019-03-22 06:00:00 16.8 33 Norte 58 Norte 0 1009.1 -0.7 66
2019-03-22 05:00:00 16.8 33 Norte 52 Norte 0 1009.1 -1.7 67
2019-03-22 04:00:00 17 30 Norte 50 Norte 0 1009.6 -1.5 65
2019-03-22 03:00:00 17 31 Norte 48 Norte 0 1009.8 -1.9 66
2019-03-22 02:00:00 17.1 26 Norte 45 Norte 0 1010.8 -0.9 66
2019-03-22 01:00:00 17.2 30 Norte 45 Norte 0 1011.1 -0.5 67
2019-03-22 00:00:00 17.1 26 Norte 42 Norte 0 1011.7 0.6 68
2019-03-21 23:00:00 17.3 28 Norte 42 Norte 0 1011.7 1.2 67
2019-03-21 22:00:00 17.4 28 Norte 45 Norte 0 1011.6 1.6 69
2019-03-21 21:00:00 17.6 30 Norte 46 Norte 0 1011.1 1.2 69
2019-03-21 20:00:00 17.9 32 Norte 46 Norte 0 1010.5 0.9 70
2019-03-21 19:00:00 18.3 30 Norte 48 Norte 0 1010 0.4 70
2019-03-21 18:00:00 19.3 34 Norte 52 Norte 0 1009.9 -0.2 66
2019-03-21 17:00:00 20.2 40 Norte 54 Norte 0 1009.6 -1.1 64
2019-03-21 16:00:00 20.9 39 Norte 54 Norte 0 1009.6 -1.9 60
2019-03-21 15:00:00 21.2 38 Norte 52 Norte 0 1010.1 -2.1 57
2019-03-21 14:00:00 21.5 32 Norte 52 Norte 0 1010.7 -1.6 53
2019-03-21 13:00:00 21.2 32 Norte 52 Norte 0 1011.5 -0.9 56
2019-03-21 12:00:00 20.9 40 Norte 50 Norte 0 1012.2 0.8 58
2019-03-21 11:00:00 20.4 37 Norte 50 Nordeste 0 1012.3 1.5 60
2019-03-21 10:00:00 19 27 Norte 46 Norte 0 1012.4 1.9 65
2019-03-21 09:00:00 18.8 29 Norte 45 Norte 0 1011.4 1.2 68
2019-03-21 08:00:00 17.4 24 Norte 37 Norte 0 1010.8 0.9 72
2019-03-21 07:00:00 17 23 Norte 39 Norte 0 1010.5 0.4 73
2019-03-21 06:00:00 17 24 Norte 35 Norte 0 1010.2 -0.3 73
2019-03-21 05:00:00 16.9 23 Norte 39 Norte 0 1009.9 -1 72
2019-03-21 04:00:00 16.9 22 Norte 37 Norte 0 1010.1 -1 71
2019-03-21 03:00:00 16.9 22 Norte 33 Norte 0 1010.5 -1 72
2019-03-21 02:00:00 17.1 22 Norte 41 Norte 0 1010.9 -1 74
2019-03-21 01:00:00 17.3 22 Norte 37 Norte 0 1011.1 -0.8 73
2019-03-21 00:00:00 17.5 23 Norte 39 Norte 0 1011.5 -0.3 74